Webkamera Lisätietoa Webcam


Yksityisiä sääasemia lähellä:

Sääasema Juupajoki

Sääasema Orivesi

Sääasema Muurame

Sääasema Jyväskylä

Sääasema Vihtavuori


Löydät sääaseman tiedot myös:

Finland Weather Exchange

European Weather Network

Weather Underground

AWEKAS

Windy.com

HAMweather, WeatherForYou, PWS Weather



Säätiedot lähimmiltä METAR asemilta

   
EFHA - Halli (Fin-Afb), Finland
Etäisyys asemalta: Kaakko 25 km
Päivitetty: 04.10.2022 00:50
Selkeää  
Selkeää  
   Tuuli: Pohjoisluode 3.6 m/s
Tuuli: Pohjoisluode 3.6 m/s
Lämpötila: 5°C
Tuulen hyytävyys: 2°C
Kastepiste: 4°C
Kosteus: 93%
Ilmanpaine: 1009 hPa
Näkyvyys: Enemmän kuin 10 km
Pilvitiedot: Selkeää
EFHA 032150Z AUTO 34007KT CAVOK 05/04 Q1009
EFJY - Jyvaskyla (Mil/Civ), Finland
Etäisyys asemalta: Koillinen 75 km
Päivitetty: 04.10.2022 00:50
Selkeää  
Selkeää  
   Tuuli: Pohjoinen 3.6 m/s
Tuuli: Pohjoinen 3.6 m/s
Lämpötila: 5°C
Tuulen hyytävyys: 2°C
Kastepiste: 4°C
Kosteus: 93%
Ilmanpaine: 1010 hPa
Näkyvyys: Enemmän kuin 10 km
Pilvitiedot: Selkeää
EFJY 032150Z AUTO 35007KT CAVOK 05/04 Q1010
EFTP - Tampere/Pirkkala, Finland
Etäisyys asemalta: Lounas 81 km
Päivitetty: 04.10.2022 00:50
Pilvistä  
Pilvistä  
   Tuuli: Pohjoiskoillinen 4.6 m/s
Tuuli: Pohjoiskoillinen 4.6 m/s
Lämpötila: 7°C
Tuulen hyytävyys: 4°C
Kastepiste: 4°C
Kosteus: 81%
Ilmanpaine: 1010 hPa
Pilvisyys: Pilvistä
Näkyvyys: Enemmän kuin 10 km
Pilvitiedot: Pilvistä 427 m
EFTP 032150Z AUTO 03009KT 350V050 9999 OVC014 07/04 Q1010
EFSI - Seinajoki-Ilmajoki, Finland
Etäisyys asemalta: Luode 114 km
Päivitetty: 04.10.2022 00:50
Sumupilvilauttoja, Sumua, Puolipilvistä  
Sumupilvilauttoja, Sumua, Puolipilvistä  
   Tuuli: Vaihtelee 1 m/s
Tuuli: Vaihtelee 1 m/s
Lämpötila: 4°C
Kastepiste: 4°C
Kosteus: 100%
Ilmanpaine: 1012 hPa
Pilvisyys: Puolipilvistä
Näkyvyys: 1 km
Pilvitiedot: Vähäistä pilvisyyttä 549 m,
Puolipilvistä 610 m,
Ukkosta
EFSI 032150Z AUTO VRB02KT 1200 R32/2000D BCFG FEW018 SCT020 //////CB 04/04 Q1012
EFMI - Mikkeli, Finland
Etäisyys asemalta: Itäkaakko 147 km
Päivitetty: 04.10.2022 00:50
Selkeää  
Selkeää  
   Tuuli: Pohjoinen 3.1 m/s
Tuuli: Pohjoinen 3.1 m/s
Lämpötila: 7°C
Tuulen hyytävyys: 5°C
Kastepiste: 3°C
Kosteus: 76%
Ilmanpaine: 1006 hPa
Näkyvyys: Enemmän kuin 10 km
Pilvitiedot: Selkeää
EFMI 032150Z AUTO 36006KT 300V060 CAVOK 07/03 Q1006
EFPO - Pori (Mil/Civ), Finland
Etäisyys asemalta: Länsilounas 154 km
Päivitetty: 04.10.2022 00:50
Melkein pilvistä  
Melkein pilvistä  
   Tuuli: Pohjoiskoillinen 2.1 m/s
Tuuli: Pohjoiskoillinen 2.1 m/s
Lämpötila: 8°C
Tuulen hyytävyys: 7°C
Kastepiste: 7°C
Kosteus: 93%
Ilmanpaine: 1011 hPa
Pilvisyys: Melkein pilvistä
Näkyvyys: Enemmän kuin 10 km
Pilvitiedot: Melkein pilvistä 793 m
EFPO 032150Z AUTO 02004KT 340V060 9999 BKN026 08/07 Q1011
EFUT - Utti (Fin-Afb), Finland
Etäisyys asemalta: Kaakko 180 km
Päivitetty: 04.10.2022 00:50
Heikkoa sadetta, Melkein pilvistä  
Heikkoa sadetta, Melkein pilvistä  
   Tuuli: Pohjoiskoillinen 7.2 m/s
Tuuli: Pohjoiskoillinen 7.2 m/s
Lämpötila: 7°C
Tuulen hyytävyys: 3°C
Kastepiste: 4°C
Kosteus: 81%
Ilmanpaine: 1004 hPa
Pilvisyys: Melkein pilvistä
Näkyvyys: Enemmän kuin 10 km
Pilvitiedot: Melkein pilvistä 640 m
EFUT 032150Z AUTO 02014KT 9999 -RA BKN021 07/04 Q1004
EFVA - Vaasa, Finland
Etäisyys asemalta: Luode 180 km
Päivitetty: 04.10.2022 00:50
Melkein pilvistä  
Melkein pilvistä  
   Tuuli: Itä 1.5 m/s
Tuuli: Itä 1.5 m/s
Lämpötila: 8°C
Tuulen hyytävyys: 7°C
Kastepiste: 7°C
Kosteus: 93%
Ilmanpaine: 1012 hPa
Pilvisyys: Melkein pilvistä
Näkyvyys: Enemmän kuin 10 km
Pilvitiedot: Melkein pilvistä 640 m
EFVA 032150Z AUTO 10003KT 050V130 9999 BKN021 08/07 Q1012
EFHK - Helsinki/Vantaa, Finland
Etäisyys asemalta: Etelä 191 km
Päivitetty: 04.10.2022 00:50
Vähäistä pilvisyyttä  
Vähäistä pilvisyyttä  
   Tuuli: Pohjoisluode 7.7 m/s
Tuuli: Pohjoisluode 7.7 m/s
Lämpötila: 7°C
Tuulen hyytävyys: 3°C
Kastepiste: 4°C
Kosteus: 81%
Ilmanpaine: 1005 hPa
Pilvisyys: Vähäistä pilvisyyttä
Näkyvyys: Enemmän kuin 10 km
Pilvitiedot: Vähäistä pilvisyyttä 610 m
EFHK 032150Z 34015KT 9999 FEW020 07/04 Q1005 NOSIG

Alkuperäinen skripti  Saratoga-weather.org Sovitettu myös templatelle  Weerstation Leuven

Laitteet joita käytämme:

Sääasema
Davis VP2

Sääasemaohjelma
Cumulus

Sääaseman palvelin
HP ProBook 6460b

Palveluntarjoaja
Radicenter

Davis VP2

Cumulus

HP ProBook 6460b

Radicenter




Flag Counter Cumulus Top Weather Sites